Time;durP1;ratioP1;P1;durP2;ratioP2;P2;SDS_P1;SDS_P2;PMS_P1;PMS_P2;Temp;Humidity;BMP_temperature;BMP_pressure;BME280_temperature;BME280_humidity;BME280_pressure;Samples;Min_cycle;Max_cycle;Signal;HPM_P1;HPM_P2
2023/05/22 00:00:12;;;;;;;12.37;11.17;;;;;;;16.98;100.00;102404.44;4999188;28;20248;-68
2023/05/22 00:02:41;;;;;;;11.90;10.60;;;;;;;16.97;100.00;102404.63;4983986;28;20216;-68
2023/05/22 00:05:10;;;;;;;11.70;10.60;;;;;;;16.83;100.00;102382.88;4992898;28;20946;-68
2023/05/22 00:07:36;;;;;;;11.20;10.10;;;;;;;16.57;100.00;102334.81;4989744;28;20961;-68
2023/05/22 00:10:02;;;;;;;12.17;11.07;;;;;;;16.98;100.00;102415.28;4988116;28;20440;-68
2023/05/22 00:12:27;;;;;;;12.73;11.40;;;;;;;17.04;100.00;102417.16;4991079;28;21746;-68
2023/05/22 00:14:53;;;;;;;11.83;10.73;;;;;;;16.84;100.00;102379.16;4986030;28;20221;-68
2023/05/22 00:17:19;;;;;;;12.30;11.10;;;;;;;16.41;100.00;102325.19;4994438;28;20673;-67
2023/05/22 00:19:45;;;;;;;12.53;11.20;;;;;;;16.52;100.00;102368.97;4992787;28;20193;-68
2023/05/22 00:22:10;;;;;;;11.63;10.30;;;;;;;16.92;100.00;102416.91;4990944;28;20585;-68
2023/05/22 00:24:37;;;;;;;11.20;10.17;;;;;;;16.69;100.00;102373.00;4992776;28;20522;-68
2023/05/22 00:27:03;;;;;;;13.00;10.40;;;;;;;16.48;100.00;102353.13;4985273;28;20235;-68
2023/05/22 00:29:28;;;;;;;12.13;10.80;;;;;;;16.97;100.00;102418.19;4994841;28;20452;-67
2023/05/22 00:31:54;;;;;;;12.73;10.30;;;;;;;16.92;100.00;102438.59;4997750;28;20185;-70
2023/05/22 00:34:19;;;;;;;11.70;10.50;;;;;;;16.92;100.00;102435.03;4997302;28;20201;-68
2023/05/22 00:36:45;;;;;;;12.20;11.10;;;;;;;16.89;100.00;102439.00;4996937;28;20193;-67
2023/05/22 00:39:10;;;;;;;11.23;10.13;;;;;;;16.63;100.00;102388.19;4998151;28;20182;-67
2023/05/22 00:41:37;;;;;;;12.20;10.90;;;;;;;16.73;100.00;102398.66;4991452;28;20189;-67
2023/05/22 00:44:02;;;;;;;11.83;10.73;;;;;;;16.79;100.00;102403.31;4993189;28;20216;-68
2023/05/22 00:46:28;;;;;;;11.30;10.20;;;;;;;16.89;100.00;102430.88;4986850;28;20445;-67
2023/05/22 00:48:53;;;;;;;10.63;9.73;;;;;;;16.83;100.00;102438.97;4973889;28;20223;-67
2023/05/22 00:51:21;;;;;;;11.73;10.60;;;;;;;16.25;100.00;102371.53;4999919;28;20181;-67
2023/05/22 00:53:47;;;;;;;10.70;9.70;;;;;;;16.85;100.00;102481.09;4998940;28;20201;-68
2023/05/22 00:56:14;;;;;;;11.87;10.77;;;;;;;16.24;100.00;102373.41;4998880;28;20429;-67
2023/05/22 00:58:40;;;;;;;11.67;10.67;;;;;;;16.37;100.00;102397.00;4998540;28;20428;-68
2023/05/22 01:01:08;;;;;;;11.50;10.50;;;;;;;16.82;100.00;102473.34;4995924;28;20835;-67
2023/05/22 01:03:44;;;;;;;11.03;9.70;;;;;;;16.80;100.00;102471.88;4993854;28;20456;-67
2023/05/22 01:06:14;;;;;;;11.00;9.80;;;;;;;16.82;100.00;102483.38;4998478;28;20428;-68
2023/05/22 01:08:41;;;;;;;12.10;10.90;;;;;;;16.77;100.00;102493.97;4992954;28;20446;-67
2023/05/22 01:11:21;;;;;;;11.73;10.63;;;;;;;16.38;100.00;102404.13;4993456;28;20443;-67
2023/05/22 01:14:09;;;;;;;11.40;10.37;;;;;;;16.58;100.00;102446.75;4993168;28;20981;-68
2023/05/22 01:16:54;;;;;;;11.50;10.30;;;;;;;16.53;100.00;102425.66;4985486;28;20885;-67
2023/05/22 01:19:30;;;;;;;11.60;10.50;;;;;;;16.38;100.00;102398.69;4989099;28;21082;-68
2023/05/22 01:22:20;;;;;;;11.53;10.50;;;;;;;16.87;100.00;102472.78;4985439;28;20432;-67
2023/05/22 01:25:44;;;;;;;11.60;10.50;;;;;;;16.86;100.00;102465.66;4986008;28;20878;-67
2023/05/22 01:28:40;;;;;;;12.53;10.73;;;;;;;16.87;100.00;102464.63;4935390;28;20456;-70
2023/05/22 01:31:10;;;;;;;11.37;10.17;;;;;;;16.20;100.00;102363.16;4952544;28;20536;-70
2023/05/22 01:33:45;;;;;;;11.43;10.33;;;;;;;16.73;100.00;102442.00;4978747;28;20507;-70
2023/05/22 01:36:14;;;;;;;11.90;10.23;;;;;;;16.78;100.00;102465.81;5007326;28;20477;-67
2023/05/22 01:38:41;;;;;;;10.73;9.63;;;;;;;16.18;100.00;102371.50;4988147;28;20439;-68
2023/05/22 01:41:08;;;;;;;11.60;10.50;;;;;;;16.11;100.00;102375.19;4985522;28;20543;-67
2023/05/22 01:43:35;;;;;;;10.40;9.40;;;;;;;16.66;100.00;102479.06;4988662;28;20463;-68
2023/05/22 01:46:00;;;;;;;12.23;10.90;;;;;;;16.63;100.00;102474.03;4987684;28;20552;-67
2023/05/22 01:48:26;;;;;;;11.50;10.20;;;;;;;16.66;100.00;102485.34;4989907;28;20907;-67
2023/05/22 01:50:53;;;;;;;12.60;11.27;;;;;;;16.68;100.00;102479.72;4989541;28;20212;-67
2023/05/22 01:54:04;;;;;;;12.03;10.83;;;;;;;16.63;100.00;102480.28;5009110;28;20802;-68
2023/05/22 01:56:47;;;;;;;13.17;11.77;;;;;;;16.64;100.00;102462.19;4993132;28;20847;-70
2023/05/22 01:59:24;;;;;;;12.40;11.10;;;;;;;16.59;100.00;102459.22;4998351;28;20818;-70
2023/05/22 02:01:53;;;;;;;11.13;10.13;;;;;;;16.33;100.00;102400.34;4990657;28;20443;-70
2023/05/22 02:04:21;;;;;;;11.80;10.47;;;;;;;16.19;100.00;102391.28;4992903;28;20459;-70
2023/05/22 02:06:50;;;;;;;12.60;11.40;;;;;;;16.52;100.00;102423.13;5005278;28;20483;-70
2023/05/22 02:09:17;;;;;;;11.40;10.33;;;;;;;16.80;100.00;102463.75;4993513;28;20476;-70
2023/05/22 02:11:43;;;;;;;12.03;10.77;;;;;;;15.62;100.00;102276.78;4991836;23;20546;-75
2023/05/22 02:14:11;;;;;;;12.73;11.53;;;;;;;14.39;100.00;102064.63;4973233;28;20452;-75
2023/05/22 02:16:37;;;;;;;12.17;10.97;;;;;;;14.92;100.00;102173.13;4971270;28;20445;-75
2023/05/22 02:19:05;;;;;;;14.20;12.00;;;;;;;15.28;100.00;102243.28;4976375;28;20440;-75
2023/05/22 02:21:34;;;;;;;12.63;11.50;;;;;;;14.80;100.00;102166.59;4975380;28;20517;-75
2023/05/22 02:24:00;;;;;;;12.13;11.00;;;;;;;16.68;100.00;102468.88;4970363;28;20457;-76
2023/05/22 02:26:25;;;;;;;12.90;11.20;;;;;;;14.12;100.00;102059.00;4976411;28;20448;-76
2023/05/22 02:28:51;;;;;;;13.33;12.03;;;;;;;14.29;100.00;102083.84;4976856;28;20502;-74
2023/05/22 02:31:17;;;;;;;14.07;12.67;;;;;;;14.45;100.00;102115.13;4973764;28;20295;-74
2023/05/22 02:33:43;;;;;;;14.83;13.37;;;;;;;14.48;100.00;102117.44;4979146;28;20228;-73
2023/05/22 02:36:09;;;;;;;13.73;12.40;;;;;;;15.72;100.00;102312.47;4979488;28;20556;-74
2023/05/22 02:38:35;;;;;;;14.00;12.50;;;;;;;15.35;100.00;102252.25;4976334;28;20555;-74
2023/05/22 02:41:01;;;;;;;14.53;13.00;;;;;;;15.08;100.00;102232.28;4968949;28;21100;-74
2023/05/22 02:43:26;;;;;;;14.60;13.20;;;;;;;14.30;100.00;102114.38;4976559;28;20528;-73
2023/05/22 02:45:52;;;;;;;14.70;13.20;;;;;;;14.41;100.00;102120.09;4973937;28;20193;-74
2023/05/22 02:48:17;;;;;;;14.50;13.00;;;;;;;15.36;100.00;102288.22;4974034;28;20194;-74
2023/05/22 02:50:43;;;;;;;15.30;13.10;;;;;;;14.37;100.00;102110.69;4979655;28;20213;-74
2023/05/22 02:53:09;;;;;;;14.13;12.73;;;;;;;14.91;100.00;102195.78;4975010;28;20197;-74
2023/05/22 02:55:34;;;;;;;13.73;12.37;;;;;;;15.89;100.00;102364.44;4977793;28;20271;-74
2023/05/22 02:58:01;;;;;;;14.60;13.10;;;;;;;14.33;100.00;102093.22;4975284;28;20835;-74
2023/05/22 03:00:27;;;;;;;15.00;13.47;;;;;;;16.11;100.00;102392.25;4972936;28;20182;-74
2023/05/22 03:02:52;;;;;;;16.60;13.43;;;;;;;14.53;100.00;102146.59;4975758;28;20518;-74
2023/05/22 03:05:18;;;;;;;15.20;12.57;;;;;;;13.93;100.00;102046.13;4977598;28;20201;-74
2023/05/22 03:07:43;;;;;;;15.40;13.90;;;;;;;14.79;100.00;102187.34;4977903;28;20705;-74
2023/05/22 03:10:09;;;;;;;13.80;12.40;;;;;;;14.23;100.00;102100.78;4975096;28;20197;-74
2023/05/22 03:12:35;;;;;;;16.03;14.33;;;;;;;15.03;100.00;102220.41;4975454;28;20924;-74
2023/05/22 03:15:00;;;;;;;14.27;12.77;;;;;;;15.31;100.00;102263.69;4975605;28;20240;-74
2023/05/22 03:17:26;;;;;;;13.80;12.40;;;;;;;14.73;100.00;102176.50;4986701;28;20199;-74
2023/05/22 03:19:51;;;;;;;15.53;14.03;;;;;;;14.92;100.00;102217.19;4973042;28;20600;-74
2023/05/22 03:22:17;;;;;;;15.90;14.30;;;;;;;14.06;100.00;102056.19;4973752;28;20242;-74
2023/05/22 03:24:43;;;;;;;15.93;14.37;;;;;;;14.65;100.00;102172.06;4970093;28;20178;-74
2023/05/22 03:27:08;;;;;;;17.00;14.90;;;;;;;14.63;100.00;102161.44;4971392;28;20226;-74
2023/05/22 03:29:35;;;;;;;16.30;14.60;;;;;;;13.86;100.00;102034.44;4971022;28;20194;-76
2023/05/22 03:32:02;;;;;;;17.10;14.77;;;;;;;14.55;100.00;102160.72;4973780;28;20263;-76
2023/05/22 03:34:28;;;;;;;15.73;14.00;;;;;;;13.96;100.00;102073.53;4977782;28;20557;-76
2023/05/22 03:36:56;;;;;;;18.73;16.80;;;;;;;14.59;100.00;102172.84;4977985;28;20492;-76
2023/05/22 03:39:21;;;;;;;16.93;15.07;;;;;;;14.09;100.00;102101.69;4982236;28;20449;-76
2023/05/22 03:41:47;;;;;;;17.60;15.70;;;;;;;14.39;100.00;102146.44;4978961;28;20479;-76
2023/05/22 03:44:12;;;;;;;18.20;14.87;;;;;;;13.25;100.00;101941.28;4977888;28;20202;-76
2023/05/22 03:46:37;;;;;;;18.67;16.73;;;;;;;13.72;100.00;102012.72;4977743;28;20197;-76
2023/05/22 03:49:03;;;;;;;16.40;14.80;;;;;;;14.02;100.00;102077.34;4979452;28;20186;-76
2023/05/22 03:51:28;;;;;;;17.60;15.80;;;;;;;14.58;100.00;102165.75;4981845;28;20217;-75
2023/05/22 03:53:54;;;;;;;17.67;15.87;;;;;;;14.16;100.00;102091.81;4998253;28;20193;-76
2023/05/22 03:56:20;;;;;;;17.70;15.90;;;;;;;13.62;100.00;101987.09;4977660;28;20290;-76
2023/05/22 03:58:45;;;;;;;18.73;16.63;;;;;;;13.59;100.00;101993.69;4982380;28;20602;-75
2023/05/22 04:01:12;;;;;;;18.67;15.47;;;;;;;13.51;100.00;101975.78;4978179;28;20684;-76
2023/05/22 04:03:38;;;;;;;18.87;16.77;;;;;;;13.76;100.00;102023.94;4980632;28;20988;-76
2023/05/22 04:06:04;;;;;;;18.43;16.50;;;;;;;15.48;100.00;102302.91;4977284;28;20545;-75
2023/05/22 04:08:30;;;;;;;18.27;15.13;;;;;;;14.24;100.00;102127.59;4973623;28;20225;-75
2023/05/22 04:10:55;;;;;;;18.40;16.47;;;;;;;14.45;100.00;102153.75;4989383;28;20481;-75
2023/05/22 04:13:21;;;;;;;16.37;14.80;;;;;;;14.31;100.00;102148.41;4970311;28;20220;-75
2023/05/22 04:15:48;;;;;;;20.00;17.03;;;;;;;13.82;100.00;102036.66;4977634;28;20337;-75
2023/05/22 04:18:14;;;;;;;17.13;14.63;;;;;;;14.47;100.00;102150.88;4978833;28;20201;-76
2023/05/22 04:20:39;;;;;;;16.13;14.40;;;;;;;14.44;100.00;102137.78;4994329;28;20469;-76
2023/05/22 04:23:06;;;;;;;17.87;15.17;;;;;;;13.71;100.00;102026.38;4976226;28;20202;-76
2023/05/22 04:25:33;;;;;;;15.63;14.07;;;;;;;15.90;100.00;102405.84;4972859;28;20264;-76
2023/05/22 04:28:01;;;;;;;16.77;15.00;;;;;;;14.54;100.00;102161.78;4994292;28;20485;-76
2023/05/22 04:30:27;;;;;;;15.53;13.93;;;;;;;13.77;100.00;102050.75;4989569;28;20449;-75
2023/05/22 04:32:52;;;;;;;15.70;14.17;;;;;;;14.58;100.00;102169.31;4973744;28;20452;-75
2023/05/22 04:35:18;;;;;;;17.80;15.20;;;;;;;15.10;100.00;102262.66;4977630;28;20429;-75
2023/05/22 04:37:44;;;;;;;15.30;13.73;;;;;;;13.79;100.00;102048.66;4981697;28;20190;-76
2023/05/22 04:40:11;;;;;;;16.80;13.93;;;;;;;13.58;100.00;101983.94;4976776;28;20193;-76
2023/05/22 04:42:37;;;;;;;15.97;13.63;;;;;;;14.33;100.00;102108.59;4974608;28;20473;-76
2023/05/22 04:45:06;;;;;;;15.17;13.73;;;;;;;14.70;100.00;102169.63;4973261;28;20444;-75
2023/05/22 04:47:31;;;;;;;15.33;13.60;;;;;;;15.99;100.00;102401.97;4965595;28;20452;-75
2023/05/22 04:49:58;;;;;;;16.27;13.63;;;;;;;14.57;100.00;102162.22;4970851;28;20515;-76
2023/05/22 04:52:24;;;;;;;14.27;12.83;;;;;;;15.21;100.00;102273.97;4973936;28;20221;-75
2023/05/22 04:54:51;;;;;;;13.70;11.87;;;;;;;14.93;100.00;102223.44;4982027;28;20636;-75
2023/05/22 04:57:17;;;;;;;14.17;12.40;;;;;;;14.85;100.00;102193.84;4995840;28;20446;-75
2023/05/22 04:59:44;;;;;;;14.63;12.90;;;;;;;14.43;100.00;102136.09;4978869;28;20447;-75
2023/05/22 05:02:10;;;;;;;15.20;12.00;;;;;;;14.50;100.00;102150.50;4979816;28;20852;-75
2023/05/22 05:04:36;;;;;;;13.17;11.77;;;;;;;14.69;100.00;102155.28;4978849;28;20439;-75
2023/05/22 05:07:02;;;;;;;14.60;12.47;;;;;;;16.10;100.00;102408.72;4973970;28;20441;-75
2023/05/22 05:09:28;;;;;;;14.73;12.47;;;;;;;14.18;100.00;102085.19;4973070;28;20185;-75
2023/05/22 05:11:54;;;;;;;14.90;11.87;;;;;;;13.86;100.00;102046.06;4974847;28;20471;-76
2023/05/22 05:14:19;;;;;;;15.63;11.50;;;;;;;14.08;100.00;102067.66;4971665;28;21136;-75
2023/05/22 05:16:45;;;;;;;12.83;11.13;;;;;;;14.95;100.00;102210.56;4974172;28;20273;-76
2023/05/22 05:19:11;;;;;;;11.83;10.63;;;;;;;14.08;100.00;102068.47;4976584;28;20201;-75
2023/05/22 05:21:38;;;;;;;14.30;11.00;;;;;;;13.92;100.00;102045.28;4972837;28;20881;-76
2023/05/22 05:24:04;;;;;;;12.77;11.00;;;;;;;16.19;100.00;102412.94;4972155;28;20225;-75
2023/05/22 05:26:30;;;;;;;13.27;10.90;;;;;;;13.75;100.00;102020.44;4977781;28;20463;-76
2023/05/22 05:28:55;;;;;;;16.13;10.37;;;;;;;14.51;100.00;102151.31;4979346;28;20448;-76
2023/05/22 05:31:22;;;;;;;11.13;9.67;;;;;;;15.30;100.00;102264.69;4969218;28;20320;-75
2023/05/22 05:33:48;;;;;;;14.40;11.47;;;;;;;14.80;100.00;102171.97;4982900;28;20655;-76
2023/05/22 05:36:15;;;;;;;12.17;10.27;;;;;;;15.68;100.00;102337.41;4977452;28;20488;-75
2023/05/22 05:38:40;;;;;;;14.07;10.00;;;;;;;14.75;100.00;102164.44;4977544;28;20685;-75
2023/05/22 05:41:06;;;;;;;11.90;10.60;;;;;;;13.67;100.00;101974.69;4974284;28;20506;-77
2023/05/22 05:43:31;;;;;;;12.00;10.00;;;;;;;15.66;100.00;102309.72;4972419;28;20196;-72
2023/05/22 05:45:57;;;;;;;11.73;10.57;;;;;;;15.92;100.00;102358.63;4988719;28;20450;-72
2023/05/22 05:48:22;;;;;;;15.10;9.70;;;;;;;16.10;100.00;102414.97;4996456;28;20735;-71
2023/05/22 05:50:48;;;;;;;11.80;10.17;;;;;;;15.63;100.00;102346.09;4978408;28;20699;-72
2023/05/22 05:53:13;;;;;;;11.50;10.30;;;;;;;16.07;100.00;102396.41;4978814;28;20186;-72
2023/05/22 05:55:39;;;;;;;10.30;9.20;;;;;;;16.00;100.00;102387.41;4980469;28;20226;-73
2023/05/22 05:58:04;;;;;;;11.10;9.90;;;;;;;15.72;100.00;102355.75;4975181;28;20445;-72
2023/05/22 06:00:30;;;;;;;11.70;8.60;;;;;;;15.59;100.00;102299.69;4990281;28;20201;-73
2023/05/22 06:02:55;;;;;;;11.53;9.63;;;;;;;14.72;100.00;102161.31;4979577;28;20683;-72
2023/05/22 06:05:21;;;;;;;9.50;8.50;;;;;;;15.63;100.00;102288.47;4975211;28;20210;-72
2023/05/22 06:07:47;;;;;;;10.10;9.03;;;;;;;16.15;100.00;102376.47;4980586;28;20564;-72
2023/05/22 06:10:13;;;;;;;9.80;8.87;;;;;;;15.40;100.00;102250.84;4993992;28;20448;-72
2023/05/22 06:12:38;;;;;;;11.13;8.30;;;;;;;16.12;100.00;102372.28;4978602;28;20313;-72
2023/05/22 06:15:06;;;;;;;11.27;8.50;;;;;;;16.24;100.00;102388.81;4980428;28;20209;-72
2023/05/22 06:17:32;;;;;;;12.73;9.10;;;;;;;15.46;100.00;102269.00;4976083;28;20847;-72
2023/05/22 06:19:57;;;;;;;10.70;8.93;;;;;;;15.40;100.00;102242.75;4979893;28;20441;-73
2023/05/22 06:22:24;;;;;;;11.00;9.53;;;;;;;16.24;100.00;102378.81;4980775;28;20468;-72
2023/05/22 06:24:53;;;;;;;8.73;7.90;;;;;;;15.65;100.00;102267.44;4976017;28;20182;-73
2023/05/22 06:27:22;;;;;;;12.80;9.00;;;;;;;15.79;100.00;102293.59;4989161;28;20440;-73
2023/05/22 06:29:51;;;;;;;9.67;8.67;;;;;;;15.58;100.00;102254.72;4972919;28;20449;-74
2023/05/22 06:32:16;;;;;;;10.40;7.93;;;;;;;15.89;100.00;102282.44;4978392;28;20496;-73
2023/05/22 06:34:44;;;;;;;9.73;8.60;;;;;;;16.35;100.00;102361.19;4974297;28;20576;-73
2023/05/22 06:37:10;;;;;;;11.17;8.60;;;;;;;15.85;100.00;102265.72;4978997;28;20186;-73
2023/05/22 06:39:36;;;;;;;10.30;8.63;;;;;;;14.59;100.00;102057.56;4997167;28;20441;-74
2023/05/22 06:42:01;;;;;;;9.00;7.90;;;;;;;16.17;100.00;102280.50;4980692;28;20483;-74
2023/05/22 06:44:27;;;;;;;9.10;8.03;;;;;;;15.68;100.00;102203.03;4983566;28;20217;-73
2023/05/22 06:46:52;;;;;;;10.60;8.07;;;;;;;16.31;100.00;102291.38;4983959;28;20185;-73
2023/05/22 06:49:18;;;;;;;10.93;8.00;;;;;;;16.56;100.00;102333.16;4980157;28;20190;-74
2023/05/22 06:51:47;;;;;;;11.40;7.77;;;;;;;16.55;100.00;102327.94;4976673;28;20214;-74
2023/05/22 06:54:13;;;;;;;17.80;8.13;;;;;;;16.17;100.00;102282.34;4973327;28;20197;-74
2023/05/22 06:56:41;;;;;;;13.10;7.83;;;;;;;16.21;100.00;102292.59;4979090;28;20442;-74
2023/05/22 06:59:07;;;;;;;11.23;8.00;;;;;;;15.77;100.00;102206.41;4978699;28;20182;-74
2023/05/22 07:01:32;;;;;;;9.57;8.00;;;;;;;16.10;100.00;102278.78;4978279;28;20961;-73
2023/05/22 07:04:03;;;;;;;12.13;8.80;;;;;;;15.13;100.00;102148.78;4974913;28;20445;-73
2023/05/22 07:06:32;;;;;;;15.80;8.80;;;;;;;16.19;100.00;102319.00;4980430;28;20181;-74
2023/05/22 07:08:58;;;;;;;11.00;7.83;;;;;;;15.64;100.00;102236.03;4976368;28;20524;-74
2023/05/22 07:11:23;;;;;;;15.23;8.10;;;;;;;16.36;100.00;102362.03;4978130;28;20968;-74
2023/05/22 07:13:49;;;;;;;14.20;8.10;;;;;;;16.14;100.00;102337.75;4975256;28;20282;-74
2023/05/22 07:16:15;;;;;;;12.00;7.77;;;;;;;15.69;100.00;102293.13;4978432;28;20219;-72
2023/05/22 07:18:41;;;;;;;10.10;8.30;;;;;;;16.17;100.00;102393.34;4988867;28;20958;-73
2023/05/22 07:21:06;;;;;;;12.00;7.83;;;;;;;15.26;100.00;102225.56;4994828;28;20218;-73
2023/05/22 07:23:31;;;;;;;13.70;8.03;;;;;;;16.28;100.00;102401.75;4977167;28;20214;-74
2023/05/22 07:25:57;;;;;;;12.70;7.70;;;;;;;16.28;100.00;102398.22;4980747;28;20193;-73
2023/05/22 07:28:22;;;;;;;11.23;7.37;;;;;;;15.83;100.00;102332.75;4989524;28;20717;-73
2023/05/22 07:30:48;;;;;;;10.40;7.47;;;;;;;15.79;100.00;102342.28;4978483;28;20674;-73
2023/05/22 07:33:13;;;;;;;12.10;8.40;;;;;;;15.60;100.00;102301.34;4977059;28;20177;-74
2023/05/22 07:35:39;;;;;;;8.10;7.27;;;;;;;16.20;100.00;102406.47;4976140;28;20209;-73
2023/05/22 07:38:07;;;;;;;12.03;8.33;;;;;;;16.02;100.00;102369.09;4978602;28;20216;-74
2023/05/22 07:40:32;;;;;;;11.00;8.77;;;;;;;16.14;100.00;102388.31;4982373;28;20187;-74
2023/05/22 07:42:57;;;;;;;15.23;9.17;;;;;;;15.62;100.00;102313.81;4980848;28;20436;-74
2023/05/22 07:45:23;;;;;;;9.83;8.10;;;;;;;16.22;100.00;102418.78;4982270;28;20190;-74
2023/05/22 07:47:49;;;;;;;12.40;8.40;;;;;;;16.23;100.00;102414.22;4982627;28;20268;-74
2023/05/22 07:50:14;;;;;;;8.57;7.60;;;;;;;15.95;100.00;102350.09;4981702;28;20182;-74
2023/05/22 07:52:40;;;;;;;11.33;8.50;;;;;;;16.23;100.00;102411.53;4976547;28;20313;-74
2023/05/22 07:55:06;;;;;;;10.63;7.83;;;;;;;16.27;100.00;102401.97;4975921;28;20206;-75
2023/05/22 07:57:35;;;;;;;11.67;8.73;;;;;;;16.20;100.00;102398.34;4976349;28;20190;-74
2023/05/22 08:00:08;;;;;;;11.20;8.70;;;;;;;15.58;100.00;102289.88;4976212;28;21036;-74
2023/05/22 08:02:34;;;;;;;11.67;8.77;;;;;;;16.34;100.00;102405.53;4977494;28;20450;-74
2023/05/22 08:04:59;;;;;;;13.17;8.57;;;;;;;16.34;100.00;102383.88;4977267;28;20456;-74
2023/05/22 08:07:25;;;;;;;11.60;8.30;;;;;;;16.41;100.00;102373.09;4978668;28;20448;-75
2023/05/22 08:09:50;;;;;;;8.77;7.87;;;;;;;15.43;100.00;102209.91;4977532;28;25809;-75
2023/05/22 08:12:16;;;;;;;7.63;6.80;;;;;;;15.69;100.00;102245.25;4974275;28;20452;-75
2023/05/22 08:14:41;;;;;;;11.17;7.90;;;;;;;16.61;100.00;102379.44;4968875;28;20221;-75
2023/05/22 09:18:19;;;;;;;13.17;9.60;;;;;;;16.68;100.00;102298.19;5111324;27;20542;-68
2023/05/22 09:20:44;;;;;;;10.23;9.03;;;;;;;16.82;100.00;102296.38;5094648;28;20520;-69
2023/05/22 09:23:16;;;;;;;9.87;7.77;;;;;;;16.73;100.00;102263.19;5091006;28;20550;-68
2023/05/22 09:25:43;;;;;;;13.67;9.00;;;;;;;16.89;100.00;102278.25;5091290;28;20297;-68
2023/05/22 09:28:10;;;;;;;9.00;7.30;;;;;;;16.98;100.00;102285.16;5091107;28;20479;-69
2023/05/22 09:30:35;;;;;;;9.50;8.23;;;;;;;17.00;100.00;102284.94;5085516;28;20988;-68
2023/05/22 09:33:03;;;;;;;8.63;7.70;;;;;;;17.04;100.00;102281.63;5089383;28;20480;-68
2023/05/22 09:35:31;;;;;;;9.03;8.13;;;;;;;17.08;100.00;102287.47;5089480;28;20670;-68
2023/05/22 09:37:57;;;;;;;11.17;9.03;;;;;;;17.05;100.00;102271.63;5094697;28;20425;-68
2023/05/22 09:40:23;;;;;;;9.23;8.33;;;;;;;17.04;100.00;102272.63;5094812;28;20439;-68
2023/05/22 09:42:48;;;;;;;9.13;8.23;;;;;;;16.76;100.00;102224.88;5096724;28;21137;-68
2023/05/22 09:45:20;;;;;;;11.40;8.77;;;;;;;17.12;100.00;102278.69;5094112;28;20207;-69
2023/05/22 09:47:49;;;;;;;9.90;8.63;;;;;;;17.06;100.00;102257.84;5096320;28;20236;-69
2023/05/22 09:50:16;;;;;;;9.70;8.67;;;;;;;17.01;100.00;102257.66;5096888;28;20478;-69
2023/05/22 09:52:43;;;;;;;9.20;8.20;;;;;;;17.12;100.00;102288.72;5094507;28;20487;-69
2023/05/22 09:55:09;;;;;;;8.40;7.60;;;;;;;17.08;100.00;102276.63;5096853;28;20930;-69
2023/05/22 09:57:43;;;;;;;9.10;8.20;;;;;;;17.16;100.00;102274.53;5095257;28;20430;-69
2023/05/22 10:00:17;;;;;;;8.67;7.83;;;;;;;16.68;100.00;102211.50;5104217;28;20431;-68
2023/05/22 10:02:52;;;;;;;8.90;7.97;;;;;;;17.22;100.00;102288.31;5096393;28;20428;-68
2023/05/22 10:05:21;;;;;;;8.80;7.90;;;;;;;17.20;100.00;102291.22;5094545;28;20448;-68
2023/05/22 10:07:52;;;;;;;9.07;8.03;;;;;;;17.23;100.00;102281.84;5095888;28;20464;-68
2023/05/22 10:10:21;;;;;;;9.00;8.10;;;;;;;17.16;100.00;102284.56;5095658;28;20432;-68
2023/05/22 10:12:52;;;;;;;9.77;8.73;;;;;;;16.74;100.00;102218.78;5094808;28;20423;-69
2023/05/22 10:15:18;;;;;;;10.40;8.20;;;;;;;16.84;100.00;102238.25;5094347;28;20443;-69
2023/05/22 10:17:44;;;;;;;14.60;8.63;;;;;;;16.99;100.00;102267.03;5091817;28;20439;-68
2023/05/22 10:20:11;;;;;;;9.60;8.70;;;;;;;16.64;100.00;102229.22;5081932;28;20795;-69
2023/05/22 10:22:37;;;;;;;9.90;9.00;;;;;;;16.73;100.00;102238.81;5080086;28;20828;-69
2023/05/22 10:25:04;;;;;;;10.90;9.13;;;;;;;16.78;100.00;102243.63;5082112;28;20448;-69
2023/05/22 10:27:30;;;;;;;9.33;8.33;;;;;;;17.09;100.00;102283.69;5081903;28;20460;-69
2023/05/22 10:30:28;;;;;;;10.40;9.27;;;;;;;17.30;100.00;102321.50;5082840;28;20906;-68
2023/05/22 10:33:16;;;;;;;11.70;8.90;;;;;;;17.30;100.00;102313.34;5071699;28;20428;-68
2023/05/22 10:35:45;;;;;;;9.50;8.20;;;;;;;17.29;100.00;102317.09;5081556;28;20468;-68
2023/05/22 10:38:45;;;;;;;9.47;8.67;;;;;;;17.34;100.00;102295.63;5082884;28;20913;-68
2023/05/22 10:41:11;;;;;;;10.73;9.67;;;;;;;17.34;100.00;102278.50;5072136;28;20481;-68
2023/05/22 10:43:43;;;;;;;9.70;8.80;;;;;;;17.39;100.00;102276.00;5082034;28;20429;-69
2023/05/22 10:46:11;;;;;;;11.67;9.20;;;;;;;16.82;100.00;102164.44;5080529;28;20461;-69
2023/05/22 10:48:38;;;;;;;10.70;9.60;;;;;;;17.22;100.00;102234.91;5068772;28;20457;-68
2023/05/22 10:51:05;;;;;;;12.90;8.73;;;;;;;17.39;100.00;102271.41;5080545;28;20957;-68
2023/05/22 10:53:31;;;;;;;10.17;9.20;;;;;;;17.23;100.00;102249.31;5066795;28;20850;-68
2023/05/22 10:56:01;;;;;;;9.03;8.13;;;;;;;17.48;100.00;102273.94;5066290;28;20526;-69
2023/05/22 10:58:31;;;;;;;9.30;8.40;;;;;;;17.50;100.00;102271.81;5068271;28;20499;-68
2023/05/22 11:01:13;;;;;;;11.07;9.07;;;;;;;17.49;100.00;102270.16;5071215;28;20440;-68
2023/05/22 11:03:59;;;;;;;8.90;8.10;;;;;;;17.49;100.00;102276.41;5080867;28;20481;-69
2023/05/22 11:06:44;;;;;;;9.27;8.37;;;;;;;17.54;100.00;102276.63;5080939;28;20464;-68
2023/05/22 11:09:34;;;;;;;9.07;8.27;;;;;;;17.60;100.00;102278.50;5079647;28;20447;-68
2023/05/22 11:12:23;;;;;;;9.20;8.40;;;;;;;17.58;100.00;102271.59;5076122;28;20435;-68
2023/05/22 11:15:05;;;;;;;9.67;8.67;;;;;;;17.63;100.00;102269.94;5074028;28;20457;-69
2023/05/22 11:17:50;;;;;;;9.27;8.30;;;;;;;17.21;100.00;102192.56;5075275;28;20480;-69
2023/05/22 11:20:24;;;;;;;10.40;9.30;;;;;;;17.68;100.00;102263.88;5069627;28;20446;-69
2023/05/22 11:23:02;;;;;;;10.07;9.07;;;;;;;17.70;100.00;102259.06;5078495;28;20425;-69
2023/05/22 11:25:28;;;;;;;9.27;8.37;;;;;;;17.75;100.00;102258.44;5078026;28;20967;-68
2023/05/22 11:27:54;;;;;;;9.70;8.70;;;;;;;17.79;100.00;102273.25;5075343;28;20948;-69
2023/05/22 11:30:24;;;;;;;9.73;8.73;;;;;;;17.71;100.00;102235.50;5074139;28;20471;-69
2023/05/22 11:32:51;;;;;;;10.07;9.13;;;;;;;17.67;100.00;102226.91;5067114;28;20503;-68
2023/05/22 11:35:17;;;;;;;9.70;8.63;;;;;;;17.89;100.00;102256.56;5071990;28;20507;-69
2023/05/22 11:37:43;;;;;;;10.87;9.90;;;;;;;17.96;100.00;102258.19;5066952;28;20445;-68
2023/05/22 11:40:12;;;;;;;10.87;9.87;;;;;;;17.13;100.00;102115.00;5064886;28;21175;-69
2023/05/22 11:42:37;;;;;;;10.40;9.43;;;;;;;17.53;100.00;102174.59;5071117;28;20437;-69
2023/05/22 11:45:04;;;;;;;8.97;8.07;;;;;;;17.96;100.00;102231.03;5072953;28;20492;-68
2023/05/22 11:47:30;;;;;;;10.27;9.37;;;;;;;18.00;100.00;102236.91;5068887;28;20198;-69
2023/05/22 11:49:56;;;;;;;10.67;9.50;;;;;;;17.96;100.00;102233.75;5068909;28;20536;-69
2023/05/22 11:52:23;;;;;;;10.87;9.83;;;;;;;17.74;100.00;102199.78;5067361;28;20445;-69
2023/05/22 11:54:51;;;;;;;10.53;9.53;;;;;;;17.84;100.00;102230.03;5066514;28;20465;-68
2023/05/22 11:57:16;;;;;;;10.50;9.50;;;;;;;17.89;100.00;102218.56;5072245;28;20543;-69
2023/05/22 11:59:48;;;;;;;11.00;9.10;;;;;;;17.94;100.00;102229.63;5071996;28;20913;-68
2023/05/22 12:02:17;;;;;;;10.87;9.80;;;;;;;17.05;100.00;102087.28;5065993;28;20214;-69
2023/05/22 12:04:43;;;;;;;11.07;9.97;;;;;;;17.88;100.00;102216.88;5071447;28;20495;-68
2023/05/22 12:07:09;;;;;;;10.57;9.50;;;;;;;17.87;100.00;102223.34;5075085;28;20533;-68
2023/05/22 12:09:38;;;;;;;11.83;9.53;;;;;;;17.82;100.00;102224.03;5065852;28;20444;-69
2023/05/22 12:12:04;;;;;;;13.17;9.97;;;;;;;17.87;100.00;102234.22;5076370;28;20452;-68